Time;durP1;ratioP1;P1;durP2;ratioP2;P2;SDS_P1;SDS_P2;PMS_P1;PMS_P2;Temp;Humidity;BMP_temperature;BMP_pressure;BME280_temperature;BME280_humidity;BME280_pressure;Samples;Min_cycle;Max_cycle;Signal;HPM_P1;HPM_P2
2022/10/01 00:00:10;;;;;;;9.77;4.68;;;;;;;;;;5096125;28;20055;-77
2022/10/01 00:02:37;;;;;;;7.38;4.93;;;;;;;;;;5094604;28;20051;-76
2022/10/01 00:05:03;;;;;;;8.32;5.72;;;;;;;;;;5096187;28;20046;-77
2022/10/01 00:07:29;;;;;;;8.15;5.30;;;;;;;;;;5094836;28;20388;-76
2022/10/01 00:09:54;;;;;;;7.30;4.90;;;;;;;;;;5094573;28;20022;-76
2022/10/01 00:12:19;;;;;;;11.65;5.10;;;;;;;;;;5095972;28;20028;-76
2022/10/01 00:14:44;;;;;;;9.93;5.18;;;;;;;;;;5096026;28;20024;-76
2022/10/01 00:17:10;;;;;;;7.30;4.90;;;;;;;;;;5095819;28;20081;-76
2022/10/01 00:19:35;;;;;;;8.63;4.85;;;;;;;;;;5095925;28;20107;-76
2022/10/01 00:22:00;;;;;;;10.05;5.38;;;;;;;;;;5096019;28;20073;-77
2022/10/01 00:24:26;;;;;;;9.52;5.47;;;;;;;;;;5096328;28;20020;-77
2022/10/01 00:26:52;;;;;;;10.18;5.07;;;;;;;;;;5095811;28;20043;-76
2022/10/01 00:29:17;;;;;;;7.40;4.47;;;;;;;;;;5096186;28;20438;-76
2022/10/01 00:31:42;;;;;;;8.25;5.10;;;;;;;;;;5093851;28;20020;-76
2022/10/01 00:34:10;;;;;;;7.28;5.15;;;;;;;;;;5095890;28;20020;-76
2022/10/01 00:36:35;;;;;;;7.85;5.25;;;;;;;;;;5095788;28;20020;-77
2022/10/01 00:39:00;;;;;;;9.32;5.45;;;;;;;;;;5095537;28;20558;-76
2022/10/01 00:41:31;;;;;;;10.52;5.68;;;;;;;;;;5094112;28;20024;-76
2022/10/01 00:44:00;;;;;;;11.00;5.05;;;;;;;;;;5095696;28;20051;-76
2022/10/01 00:46:42;;;;;;;9.15;5.35;;;;;;;;;;5095422;28;20052;-76
2022/10/01 00:49:19;;;;;;;9.93;5.80;;;;;;;;;;5094366;28;20064;-76
2022/10/01 00:51:49;;;;;;;6.93;4.85;;;;;;;;;;5095603;28;20028;-76
2022/10/01 00:54:22;;;;;;;8.90;5.10;;;;;;;;;;5093739;28;20434;-77
2022/10/01 00:56:50;;;;;;;9.52;5.25;;;;;;;;;;5094696;28;20028;-78
2022/10/01 00:59:15;;;;;;;7.55;5.13;;;;;;;;;;5094377;28;20020;-76
2022/10/01 01:01:40;;;;;;;10.35;5.38;;;;;;;;;;5094673;28;20060;-76
2022/10/01 01:04:15;;;;;;;8.27;4.93;;;;;;;;;;5094608;28;20024;-76
2022/10/01 01:06:55;;;;;;;8.93;5.38;;;;;;;;;;5093262;28;20454;-76
2022/10/01 01:09:23;;;;;;;8.35;5.03;;;;;;;;;;5094402;28;20031;-77
2022/10/01 01:12:00;;;;;;;8.50;5.57;;;;;;;;;;5093005;28;20214;-77
2022/10/01 01:14:40;;;;;;;8.85;5.38;;;;;;;;;;5094284;28;20026;-77
2022/10/01 01:17:13;;;;;;;11.40;5.15;;;;;;;;;;5094516;28;20024;-77
2022/10/01 01:19:49;;;;;;;8.63;5.30;;;;;;;;;;5093295;28;20123;-77
2022/10/01 01:22:18;;;;;;;9.73;5.40;;;;;;;;;;5094176;28;20089;-76
2022/10/01 01:25:06;;;;;;;9.82;5.40;;;;;;;;;;5092883;28;20393;-76
2022/10/01 01:27:39;;;;;;;9.70;4.93;;;;;;;;;;5092974;28;20020;-77
2022/10/01 01:30:15;;;;;;;8.85;5.22;;;;;;;;;;5092712;28;20023;-76
2022/10/01 01:33:03;;;;;;;10.23;5.13;;;;;;;;;;5094371;28;20028;-76
2022/10/01 01:35:49;;;;;;;8.45;5.05;;;;;;;;;;5092859;28;20038;-76
2022/10/01 01:38:20;;;;;;;11.40;5.40;;;;;;;;;;5094077;28;20032;-75
2022/10/01 01:40:50;;;;;;;8.35;5.22;;;;;;;;;;5092883;28;20024;-76
2022/10/01 01:43:19;;;;;;;7.40;5.22;;;;;;;;;;5092514;28;20020;-76
2022/10/01 01:45:48;;;;;;;7.78;4.93;;;;;;;;;;5093925;28;20489;-76
2022/10/01 01:48:13;;;;;;;8.20;5.32;;;;;;;;;;5094402;28;20036;-76
2022/10/01 01:51:07;;;;;;;11.30;4.63;;;;;;;;;;5092777;28;20028;-76
2022/10/01 01:53:33;;;;;;;9.00;5.10;;;;;;;;;;5094318;28;20028;-76
2022/10/01 01:55:59;;;;;;;8.27;5.20;;;;;;;;;;5093646;28;20028;-77
2022/10/01 01:58:26;;;;;;;12.30;5.80;;;;;;;;;;5092691;28;20057;-76
2022/10/01 02:00:52;;;;;;;10.68;5.20;;;;;;;;;;5093889;28;20038;-76
2022/10/01 02:03:24;;;;;;;8.20;5.22;;;;;;;;;;5093692;28;20028;-76
2022/10/01 02:06:15;;;;;;;9.02;5.55;;;;;;;;;;5093818;28;20496;-76
2022/10/01 02:08:57;;;;;;;10.50;5.60;;;;;;;;;;5082902;28;20039;-76
2022/10/01 02:11:31;;;;;;;10.00;5.50;;;;;;;;;;5093766;28;20020;-76
2022/10/01 02:14:02;;;;;;;10.43;5.78;;;;;;;;;;5094083;28;20043;-76
2022/10/01 02:16:49;;;;;;;9.57;4.93;;;;;;;;;;5094100;28;20032;-76
2022/10/01 02:19:36;;;;;;;12.57;5.72;;;;;;;;;;5093846;28;20420;-76
2022/10/01 02:22:11;;;;;;;8.80;5.15;;;;;;;;;;5092438;28;20031;-76
2022/10/01 02:24:44;;;;;;;8.43;5.32;;;;;;;;;;5094090;28;20024;-76
2022/10/01 02:27:38;;;;;;;10.00;5.22;;;;;;;;;;5092982;28;20109;-76
2022/10/01 02:30:07;;;;;;;11.15;5.43;;;;;;;;;;5086706;28;20411;-77
2022/10/01 02:32:36;;;;;;;7.28;5.22;;;;;;;;;;5094043;28;20504;-77
2022/10/01 02:35:04;;;;;;;9.52;5.13;;;;;;;;;;5094107;28;20101;-76
2022/10/01 02:37:31;;;;;;;9.07;5.38;;;;;;;;;;5093970;28;20392;-76
2022/10/01 02:40:00;;;;;;;8.50;5.55;;;;;;;;;;5093803;28;20028;-77
2022/10/01 02:42:27;;;;;;;8.80;5.78;;;;;;;;;;5093081;28;20047;-76
2022/10/01 02:44:54;;;;;;;10.52;5.90;;;;;;;;;;5093926;28;20034;-77
2022/10/01 02:47:43;;;;;;;12.70;5.68;;;;;;;;;;5094061;28;20047;-77
2022/10/01 02:50:11;;;;;;;11.05;6.03;;;;;;;;;;5093779;28;20016;-77
2022/10/01 02:52:46;;;;;;;9.55;5.60;;;;;;;;;;5093560;28;20074;-77
2022/10/01 02:55:23;;;;;;;10.43;5.60;;;;;;;;;;5096557;28;20538;-76
2022/10/01 02:57:49;;;;;;;9.88;5.82;;;;;;;;;;5096406;28;20020;-76
2022/10/01 03:00:20;;;;;;;9.20;5.38;;;;;;;;;;5097438;28;20039;-76
2022/10/01 03:02:46;;;;;;;9.93;5.75;;;;;;;;;;5097663;28;20099;-77
2022/10/01 03:05:12;;;;;;;7.90;5.47;;;;;;;;;;5095947;28;20032;-77
2022/10/01 03:07:38;;;;;;;12.45;5.97;;;;;;;;;;5097184;28;20106;-77
2022/10/01 03:10:04;;;;;;;11.02;5.93;;;;;;;;;;5096882;28;20412;-77
2022/10/01 03:12:30;;;;;;;7.15;5.10;;;;;;;;;;5095637;28;20473;-76
2022/10/01 03:14:55;;;;;;;7.95;5.60;;;;;;;;;;5097280;28;20032;-77
2022/10/01 03:17:21;;;;;;;9.30;5.90;;;;;;;;;;5097422;28;20432;-76
2022/10/01 03:19:46;;;;;;;7.88;5.53;;;;;;;;;;5097304;28;20081;-76
2022/10/01 03:22:13;;;;;;;9.55;5.85;;;;;;;;;;5097075;28;20028;-76
2022/10/01 03:24:39;;;;;;;12.30;5.60;;;;;;;;;;5096775;28;20081;-76
2022/10/01 03:27:04;;;;;;;9.52;5.47;;;;;;;;;;5096905;28;20016;-76
2022/10/01 03:29:29;;;;;;;12.25;5.60;;;;;;;;;;5096577;28;20034;-76
2022/10/01 03:31:55;;;;;;;10.73;5.60;;;;;;;;;;5096740;28;20050;-76
2022/10/01 03:34:21;;;;;;;9.82;6.43;;;;;;;;;;5096856;28;20116;-76
2022/10/01 03:36:46;;;;;;;13.50;5.75;;;;;;;;;;5096855;28;20127;-77
2022/10/01 03:39:12;;;;;;;12.00;6.00;;;;;;;;;;5096365;28;20027;-76
2022/10/01 03:41:37;;;;;;;9.32;6.05;;;;;;;;;;5096682;28;20106;-76
2022/10/01 03:44:03;;;;;;;12.65;5.88;;;;;;;;;;5097150;28;20020;-77
2022/10/01 03:46:29;;;;;;;10.60;6.13;;;;;;;;;;5097327;28;20023;-76
2022/10/01 03:48:56;;;;;;;8.90;6.18;;;;;;;;;;5097038;28;20028;-76
2022/10/01 03:51:22;;;;;;;9.02;5.97;;;;;;;;;;5096810;28;20055;-76
2022/10/01 03:53:47;;;;;;;17.98;7.07;;;;;;;;;;5095314;28;20100;-76
2022/10/01 03:56:13;;;;;;;11.27;6.25;;;;;;;;;;5096798;28;20362;-76
2022/10/01 03:58:38;;;;;;;10.70;6.22;;;;;;;;;;5096592;28;20392;-76
2022/10/01 04:01:04;;;;;;;11.25;6.10;;;;;;;;;;5095090;28;20114;-75
2022/10/01 04:03:29;;;;;;;14.10;6.10;;;;;;;;;;5096221;28;20028;-76
2022/10/01 04:05:55;;;;;;;9.60;5.75;;;;;;;;;;5093572;28;20538;-77
2022/10/01 04:08:20;;;;;;;12.45;6.05;;;;;;;;;;5095782;28;20023;-76
2022/10/01 04:10:46;;;;;;;9.88;6.40;;;;;;;;;;5094407;28;20051;-75
2022/10/01 04:13:11;;;;;;;10.10;6.07;;;;;;;;;;5095034;28;20024;-76
2022/10/01 04:15:36;;;;;;;9.63;6.18;;;;;;;;;;5096444;28;20028;-76
2022/10/01 04:18:04;;;;;;;9.43;6.30;;;;;;;;;;5095984;28;20028;-76
2022/10/01 04:20:30;;;;;;;10.38;6.35;;;;;;;;;;5096119;28;20107;-77
2022/10/01 04:22:55;;;;;;;11.68;6.55;;;;;;;;;;5096263;28;20131;-76
2022/10/01 04:25:20;;;;;;;9.32;6.13;;;;;;;;;;5096207;28;20016;-76
2022/10/01 04:27:58;;;;;;;10.57;6.50;;;;;;;;;;5096217;28;20465;-76
2022/10/01 04:30:25;;;;;;;12.63;6.80;;;;;;;;;;5096053;28;20551;-76
2022/10/01 04:32:50;;;;;;;13.07;6.57;;;;;;;;;;5095998;28;20213;-76
2022/10/01 04:35:15;;;;;;;11.30;7.00;;;;;;;;;;5095609;28;20118;-76
2022/10/01 04:37:41;;;;;;;10.02;6.72;;;;;;;;;;5094150;28;20016;-76
2022/10/01 04:40:06;;;;;;;12.30;6.00;;;;;;;;;;5095426;28;20544;-76
2022/10/01 04:42:32;;;;;;;11.18;6.70;;;;;;;;;;5095160;28;20039;-75
2022/10/01 04:44:57;;;;;;;10.40;6.60;;;;;;;;;;5093691;28;20473;-76
2022/10/01 04:47:25;;;;;;;10.30;6.32;;;;;;;;;;5094095;28;20024;-76
2022/10/01 04:49:50;;;;;;;11.00;6.85;;;;;;;;;;5095672;28;20047;-77
2022/10/01 04:52:16;;;;;;;15.93;6.72;;;;;;;;;;5090658;28;20391;-77
2022/10/01 04:54:41;;;;;;;14.73;7.05;;;;;;;;;;5091938;28;20044;-76
2022/10/01 04:57:06;;;;;;;12.68;6.30;;;;;;;;;;5090978;28;20028;-77
2022/10/01 04:59:32;;;;;;;16.08;6.63;;;;;;;;;;5090134;28;20059;-77
2022/10/01 05:01:57;;;;;;;13.75;6.10;;;;;;;;;;5090221;28;20024;-77
2022/10/01 05:04:22;;;;;;;9.57;6.30;;;;;;;;;;5091474;28;20148;-76
2022/10/01 05:06:48;;;;;;;11.20;6.70;;;;;;;;;;5091499;28;20023;-75
2022/10/01 05:09:13;;;;;;;13.98;6.30;;;;;;;;;;5090958;28;20035;-77
2022/10/01 05:11:38;;;;;;;13.88;6.30;;;;;;;;;;5091209;28;20115;-77
2022/10/01 05:14:04;;;;;;;10.05;5.85;;;;;;;;;;5089669;28;20031;-77
2022/10/01 05:16:29;;;;;;;11.25;6.57;;;;;;;;;;5089699;28;20028;-77
2022/10/01 05:18:55;;;;;;;10.77;6.25;;;;;;;;;;5090132;28;20377;-76
2022/10/01 05:21:20;;;;;;;10.15;6.22;;;;;;;;;;5089496;28;20031;-76
2022/10/01 05:23:45;;;;;;;12.88;6.35;;;;;;;;;;5089979;28;20447;-76
2022/10/01 05:26:11;;;;;;;16.70;6.78;;;;;;;;;;5091069;28;20027;-76
2022/10/01 05:28:41;;;;;;;11.18;6.43;;;;;;;;;;5090834;28;20115;-77
2022/10/01 05:31:07;;;;;;;12.07;6.50;;;;;;;;;;5091010;28;20525;-77
2022/10/01 05:33:33;;;;;;;12.75;7.25;;;;;;;;;;5089341;28;20127;-77
2022/10/01 05:35:58;;;;;;;14.73;7.57;;;;;;;;;;5089847;28;20485;-75
2022/10/01 05:38:23;;;;;;;15.77;9.30;;;;;;;;;;5090862;28;20397;-77
2022/10/01 05:40:49;;;;;;;12.82;8.30;;;;;;;;;;5090725;28;20042;-76
2022/10/01 05:43:14;;;;;;;11.57;8.20;;;;;;;;;;5090673;28;20032;-77
2022/10/01 05:45:40;;;;;;;12.50;7.50;;;;;;;;;;5088701;28;20032;-77
2022/10/01 05:48:07;;;;;;;14.20;8.02;;;;;;;;;;5090408;28;20028;-77
2022/10/01 05:50:35;;;;;;;12.13;7.82;;;;;;;;;;5090808;28;20054;-77
2022/10/01 05:53:01;;;;;;;12.02;8.18;;;;;;;;;;5090969;28;20023;-76
2022/10/01 05:55:33;;;;;;;12.30;8.60;;;;;;;;;;5088612;28;20024;-76
2022/10/01 05:58:10;;;;;;;14.73;8.73;;;;;;;;;;5088827;28;20035;-76
2022/10/01 06:00:37;;;;;;;14.80;7.38;;;;;;;;;;5088877;28;20028;-77
2022/10/01 06:03:04;;;;;;;11.25;7.63;;;;;;;;;;5090165;28;20032;-77
2022/10/01 06:05:31;;;;;;;11.10;7.13;;;;;;;;;;5090160;28;20342;-77
2022/10/01 06:07:56;;;;;;;10.77;7.22;;;;;;;;;;5089908;28;20023;-77
2022/10/01 06:10:23;;;;;;;12.15;6.50;;;;;;;;;;5089986;28;20382;-77
2022/10/01 06:12:49;;;;;;;9.73;6.88;;;;;;;;;;5088873;28;20042;-75
2022/10/01 06:15:15;;;;;;;11.57;6.72;;;;;;;;;;5090535;28;20037;-76
2022/10/01 06:17:44;;;;;;;13.40;6.65;;;;;;;;;;5088673;28;20093;-76
2022/10/01 06:20:17;;;;;;;11.70;6.57;;;;;;;;;;5089965;28;20024;-76
2022/10/01 06:22:43;;;;;;;11.10;6.95;;;;;;;;;;5090623;28;20024;-77
2022/10/01 06:25:10;;;;;;;10.10;6.57;;;;;;;;;;5090633;28;20040;-76
2022/10/01 06:27:36;;;;;;;10.40;6.03;;;;;;;;;;5089353;28;20016;-79
2022/10/01 06:30:02;;;;;;;12.23;6.93;;;;;;;;;;5091935;28;20073;-77
2022/10/01 06:32:27;;;;;;;9.30;6.60;;;;;;;;;;5092208;28;20086;-76
2022/10/01 06:34:52;;;;;;;11.88;7.43;;;;;;;;;;5093469;28;20435;-77
2022/10/01 06:37:17;;;;;;;10.95;6.47;;;;;;;;;;5092333;28;20024;-76
2022/10/01 06:39:43;;;;;;;9.95;6.22;;;;;;;;;;5093609;28;20031;-77
2022/10/01 06:42:08;;;;;;;10.85;6.30;;;;;;;;;;5095122;28;20032;-77
2022/10/01 06:44:34;;;;;;;12.95;6.93;;;;;;;;;;5093071;28;20378;-77
2022/10/01 06:46:59;;;;;;;8.27;6.10;;;;;;;;;;5092430;28;20016;-80
2022/10/01 06:49:25;;;;;;;10.25;6.43;;;;;;;;;;5093618;28;20027;-78
2022/10/01 06:54:35;;;;;;;11.77;6.82;;;;;;;;;;5093261;28;20035;-75
2022/10/01 06:57:00;;;;;;;10.43;6.25;;;;;;;;;;5092947;28;20024;-77
2022/10/01 06:59:25;;;;;;;11.32;6.57;;;;;;;;;;5097066;28;20035;-77
2022/10/01 07:01:52;;;;;;;12.07;6.63;;;;;;;;;;5095852;28;20459;-76
2022/10/01 07:04:18;;;;;;;9.63;6.03;;;;;;;;;;5099093;28;20108;-78
2022/10/01 07:06:43;;;;;;;8.63;5.63;;;;;;;;;;5101450;28;20051;-79
2022/10/01 07:09:08;;;;;;;10.95;6.45;;;;;;;;;;5101974;28;20020;-78
2022/10/01 07:11:38;;;;;;;9.32;6.18;;;;;;;;;;5100369;28;20026;-77
2022/10/01 07:14:03;;;;;;;11.60;6.00;;;;;;;;;;5102233;28;20019;-78
2022/10/01 07:16:28;;;;;;;10.63;5.65;;;;;;;;;;5102481;28;20020;-77
2022/10/01 07:18:53;;;;;;;9.35;5.55;;;;;;;;;;5102082;28;20505;-78
2022/10/01 07:21:19;;;;;;;11.23;5.47;;;;;;;;;;5102480;28;20028;-77
2022/10/01 07:23:44;;;;;;;7.30;4.97;;;;;;;;;;5102035;28;20435;-78
2022/10/01 07:26:09;;;;;;;7.78;5.00;;;;;;;;;;5101057;28;20047;-77
2022/10/01 07:28:34;;;;;;;10.20;5.43;;;;;;;;;;5099814;28;20020;-77
2022/10/01 07:31:03;;;;;;;7.68;5.05;;;;;;;;;;5099043;28;20024;-78
2022/10/01 07:33:29;;;;;;;7.05;4.82;;;;;;;;;;5101778;28;20024;-77
2022/10/01 07:35:54;;;;;;;7.65;5.10;;;;;;;;;;5101601;28;20038;-76
2022/10/01 07:38:20;;;;;;;8.10;5.13;;;;;;;;;;5101563;28;20028;-78
2022/10/01 07:40:53;;;;;;;9.68;5.03;;;;;;;;;;5100135;28;20035;-77
2022/10/01 07:43:18;;;;;;;7.32;5.05;;;;;;;;;;5100254;28;20411;-77
2022/10/01 07:45:45;;;;;;;11.40;5.50;;;;;;;;;;5098462;28;20046;-78
2022/10/01 07:48:13;;;;;;;8.68;5.30;;;;;;;;;;5099608;28;20500;-77
2022/10/01 07:50:42;;;;;;;10.95;5.57;;;;;;;;;;5099364;28;20088;-78
2022/10/01 07:53:08;;;;;;;12.25;5.43;;;;;;;;;;5098904;28;20048;-77
2022/10/01 07:55:34;;;;;;;11.15;5.88;;;;;;;;;;5098869;28;20034;-77
2022/10/01 07:58:02;;;;;;;12.82;6.30;;;;;;;;;;5097375;28;20027;-77
2022/10/01 08:00:30;;;;;;;9.82;5.60;;;;;;;;;;5098522;28;20038;-78
2022/10/01 08:02:56;;;;;;;11.07;5.55;;;;;;;;;;5098347;28;20060;-78
2022/10/01 08:05:24;;;;;;;11.68;5.05;;;;;;;;;;5099692;28;20035;-78
2022/10/01 08:07:50;;;;;;;8.57;4.80;;;;;;;;;;5098736;28;20404;-77
2022/10/01 08:10:17;;;;;;;6.20;4.18;;;;;;;;;;5098480;28;20020;-77
2022/10/01 08:12:43;;;;;;;5.72;3.95;;;;;;;;;;5097523;28;20020;-77
2022/10/01 08:15:10;;;;;;;6.65;3.75;;;;;;;;;;5096877;28;20028;-77
2022/10/01 08:17:37;;;;;;;5.57;4.13;;;;;;;;;;5096606;28;20432;-77
2022/10/01 08:20:03;;;;;;;9.98;4.03;;;;;;;;;;5096201;28;20123;-77
2022/10/01 08:22:29;;;;;;;6.97;4.32;;;;;;;;;;5096906;28;20028;-77
2022/10/01 08:24:54;;;;;;;7.15;4.13;;;;;;;;;;5097363;28;20028;-77
2022/10/01 08:27:19;;;;;;;6.15;3.42;;;;;;;;;;5097093;28;20381;-77
2022/10/01 08:29:44;;;;;;;4.80;3.40;;;;;;;;;;5096167;28;20036;-77
2022/10/01 08:32:10;;;;;;;7.72;3.80;;;;;;;;;;5097619;28;20020;-77
2022/10/01 08:34:35;;;;;;;4.40;3.20;;;;;;;;;;5096982;28;20023;-77
2022/10/01 08:37:00;;;;;;;5.63;3.35;;;;;;;;;;5095527;28;20031;-78
2022/10/01 08:39:26;;;;;;;5.97;3.58;;;;;;;;;;5097017;28;20024;-77
2022/10/01 08:42:22;;;;;;;5.30;3.55;;;;;;;;;;5096794;28;20016;-78
2022/10/01 08:44:49;;;;;;;6.20;3.78;;;;;;;;;;5096762;28;20068;-77
2022/10/01 08:47:21;;;;;;;6.35;3.95;;;;;;;;;;5095735;28;20024;-77
2022/10/01 08:49:52;;;;;;;6.28;3.92;;;;;;;;;;5097182;28;20100;-78
2022/10/01 08:52:24;;;;;;;7.30;3.60;;;;;;;;;;5096336;28;20035;-79
2022/10/01 08:55:00;;;;;;;6.22;3.80;;;;;;;;;;5096584;28;20032;-77
2022/10/01 08:57:33;;;;;;;5.82;3.85;;;;;;;;;;5096356;28;20028;-77
2022/10/01 09:00:02;;;;;;;6.20;4.00;;;;;;;;;;5095402;28;20118;-78
2022/10/01 09:02:32;;;;;;;6.32;4.00;;;;;;;;;;5096018;28;20024;-77
2022/10/01 09:05:37;;;;;;;5.78;3.67;;;;;;;;;;5095603;28;20105;-77
2022/10/01 09:08:45;;;;;;;6.60;3.85;;;;;;;;;;5064810;28;20036;-78
2022/10/01 09:11:24;;;;;;;6.07;4.00;;;;;;;;;;5094442;28;20035;-78
2022/10/01 09:14:08;;;;;;;6.55;4.72;;;;;;;;;;5095926;28;20433;-78
2022/10/01 09:16:41;;;;;;;6.32;4.38;;;;;;;;;;5096119;28;20496;-77
2022/10/01 09:19:30;;;;;;;9.05;4.30;;;;;;;;;;5095734;28;20480;-77
2022/10/01 09:22:04;;;;;;;5.90;4.15;;;;;;;;;;5094816;28;20024;-77
2022/10/01 09:24:44;;;;;;;7.75;3.97;;;;;;;;;;5095220;28;20024;-77
2022/10/01 09:27:19;;;;;;;5.00;3.85;;;;;;;;;;5095878;28;20016;-77
2022/10/01 09:29:49;;;;;;;4.82;3.50;;;;;;;;;;5095990;28;20030;-77
2022/10/01 09:32:21;;;;;;;7.88;3.75;;;;;;;;;;5095747;28;20028;-77
2022/10/01 09:34:46;;;;;;;9.27;4.18;;;;;;;;;;5095941;28;20030;-77
2022/10/01 09:37:26;;;;;;;5.97;3.80;;;;;;;;;;5095736;28;20088;-77
2022/10/01 09:40:02;;;;;;;6.55;3.78;;;;;;;;;;5095558;28;20020;-77
2022/10/01 09:42:30;;;;;;;5.57;3.70;;;;;;;;;;5094861;28;20023;-77
2022/10/01 09:44:57;;;;;;;5.57;3.65;;;;;;;;;;5094075;28;20435;-77
2022/10/01 09:47:24;;;;;;;5.72;4.07;;;;;;;;;;5095135;28;20048;-77
2022/10/01 09:49:50;;;;;;;5.93;3.70;;;;;;;;;;5095513;28;20051;-77
2022/10/01 09:52:18;;;;;;;5.63;3.55;;;;;;;;;;5095453;28;20039;-77
2022/10/01 09:54:49;;;;;;;5.10;3.60;;;;;;;;;;5095776;28;20051;-78
2022/10/01 09:57:30;;;;;;;5.57;3.30;;;;;;;;;;5095477;28;20104;-78
2022/10/01 10:00:10;;;;;;;5.80;3.45;;;;;;;;;;5095350;28;20024;-77
2022/10/01 10:02:44;;;;;;;5.53;3.58;;;;;;;;;;5094050;28;20080;-77
2022/10/01 10:05:13;;;;;;;;;;;;;;;;;;5096194;28;20016;-78
2022/10/01 10:07:41;;;;;;;5.60;3.53;;;;;;;;;;5096186;28;20300;-78
2022/10/01 10:10:21;;;;;;;5.22;3.35;;;;;;;;;;5095471;28;20425;-77
2022/10/01 10:12:48;;;;;;;5.50;3.20;;;;;;;;;;5094431;28;20111;-78
2022/10/01 10:15:19;;;;;;;6.80;3.53;;;;;;;;;;5094247;28;20027;-78
2022/10/01 10:17:48;;;;;;;6.75;3.30;;;;;;;;;;5095816;28;20039;-78
2022/10/01 10:20:28;;;;;;;6.82;3.22;;;;;;;;;;5095288;28;20020;-78
2022/10/01 10:23:05;;;;;;;4.93;2.97;;;;;;;;;;5096075;28;20028;-78
2022/10/01 10:25:30;;;;;;;4.18;3.20;;;;;;;;;;5093636;28;20024;-77
2022/10/01 10:27:58;;;;;;;4.78;3.17;;;;;;;;;;5094978;28;20532;-78
2022/10/01 10:30:25;;;;;;;4.45;2.85;;;;;;;;;;5094948;28;20581;-77
2022/10/01 10:32:52;;;;;;;4.20;3.17;;;;;;;;;;5094851;28;20024;-78
2022/10/01 10:35:24;;;;;;;9.15;3.58;;;;;;;;;;5095875;28;20388;-78
2022/10/01 10:37:56;;;;;;;6.43;3.40;;;;;;;;;;5095341;28;20500;-78
2022/10/01 10:40:41;;;;;;;6.15;3.42;;;;;;;;;;5096234;28;20035;-78
2022/10/01 10:43:19;;;;;;;5.22;3.70;;;;;;;;;;5095579;28;20480;-78
2022/10/01 10:45:45;;;;;;;5.22;3.60;;;;;;;;;;5096581;28;20032;-78
2022/10/01 10:48:16;;;;;;;7.03;3.65;;;;;;;;;;5096639;28;20354;-78
2022/10/01 10:50:44;;;;;;;8.88;3.50;;;;;;;;;;5096415;28;20073;-78
2022/10/01 10:53:21;;;;;;;6.10;3.47;;;;;;;;;;5094554;28;20035;-78
2022/10/01 10:56:01;;;;;;;6.95;3.00;;;;;;;;;;5096120;28;20098;-79
2022/10/01 10:58:32;;;;;;;4.18;2.40;;;;;;;;;;5096139;28;20165;-78
2022/10/01 11:01:00;;;;;;;3.08;1.90;;;;;;;;;;5095282;28;20050;-79
2022/10/01 11:03:28;;;;;;;3.75;2.38;;;;;;;;;;5094698;28;20082;-78
2022/10/01 11:06:00;;;;;;;4.68;2.28;;;;;;;;;;5097225;28;20051;-78
2022/10/01 11:08:27;;;;;;;2.78;2.00;;;;;;;;;;5095370;28;20480;-79
2022/10/01 11:11:08;;;;;;;4.50;2.80;;;;;;;;;;5094994;28;20020;-78
2022/10/01 11:13:44;;;;;;;4.47;2.60;;;;;;;;;;5095593;28;20052;-78
2022/10/01 11:16:13;;;;;;;6.60;2.80;;;;;;;;;;5097454;28;20028;-78
2022/10/01 11:19:17;;;;;;;3.65;2.42;;;;;;;;;;5098880;28;20281;-78
2022/10/01 11:22:04;;;;;;;6.45;3.05;;;;;;;;;;5098196;28;20095;-78
2022/10/01 11:24:51;;;;;;;4.07;2.90;;;;;;;;;;5097186;28;20024;-78
2022/10/01 11:27:17;;;;;;;5.68;2.97;;;;;;;;;;5097546;28;20393;-79
2022/10/01 11:29:51;;;;;;;6.00;3.37;;;;;;;;;;5097429;28;20024;-77
2022/10/01 11:32:51;;;;;;;4.65;2.97;;;;;;;;;;5096014;28;20257;-79
2022/10/01 11:35:17;;;;;;;6.28;2.92;;;;;;;;;;5095622;28;20035;-78
2022/10/01 11:38:01;;;;;;;6.05;3.33;;;;;;;;;;5097074;28;20024;-78
2022/10/01 11:40:30;;;;;;;;;;;;;;;;;;5097202;28;20028;-78
2022/10/01 11:43:02;;;;;;;4.30;3.15;;;;;;;;;;5095919;28;20285;-78
2022/10/01 11:45:34;;;;;;;7.53;3.40;;;;;;;;;;5095532;28;20037;-78
2022/10/01 11:48:07;;;;;;;5.05;3.35;;;;;;;;;;5097638;28;20024;-78
2022/10/01 11:50:42;;;;;;;7.97;3.40;;;;;;;;;;5097654;28;20457;-78
2022/10/01 11:53:20;;;;;;;5.28;3.42;;;;;;;;;;5097415;28;20315;-78
2022/10/01 11:59:18;;;;;;;5.68;2.92;;;;;;;;;;5054389;28;20100;-77
2022/10/01 12:02:01;;;;;;;5.28;3.10;;;;;;;;;;5095358;28;20043;-77
2022/10/01 12:04:38;;;;;;;6.50;3.08;;;;;;;;;;5097450;28;20469;-78
2022/10/01 12:07:28;;;;;;;5.20;3.20;;;;;;;;;;5097410;28;20112;-77
2022/10/01 12:09:54;;;;;;;5.70;2.92;;;;;;;;;;5097092;28;20024;-77
2022/10/01 12:12:26;;;;;;;4.97;3.17;;;;;;;;;;5097031;28;20031;-77
2022/10/01 12:15:00;;;;;;;4.15;2.83;;;;;;;;;;5095601;28;20249;-77
2022/10/01 12:17:42;;;;;;;5.72;2.72;;;;;;;;;;5096200;28;20449;-77
2022/10/01 12:20:41;;;;;;;4.82;2.80;;;;;;;;;;5096717;28;20095;-77
2022/10/01 12:23:13;;;;;;;5.30;2.88;;;;;;;;;;5063380;28;20032;-78
2022/10/01 12:26:01;;;;;;;5.63;2.88;;;;;;;;;;5097547;28;20028;-77
2022/10/01 12:29:07;;;;;;;4.82;3.60;;;;;;;;;;5079172;28;20506;-77
2022/10/01 12:32:01;;;;;;;3.80;2.80;;;;;;;;;;5096960;28;20027;-78
2022/10/01 12:34:52;;;;;;;5.13;3.00;;;;;;;;;;5094872;28;20119;-78
2022/10/01 12:37:43;;;;;;;5.63;3.80;;;;;;;;;;5096731;28;20035;-78
2022/10/01 12:40:31;;;;;;;4.00;2.75;;;;;;;;;;5091786;28;20047;-78
2022/10/01 12:43:13;;;;;;;4.07;2.97;;;;;;;;;;5094978;28;20016;-78
2022/10/01 12:46:10;;;;;;;5.13;3.03;;;;;;;;;;5095202;28;20032;-78
2022/10/01 12:48:46;;;;;;;4.65;3.42;;;;;;;;;;5085547;28;20043;-78
2022/10/01 12:51:31;;;;;;;5.65;3.47;;;;;;;;;;5096185;28;20084;-78
2022/10/01 12:54:11;;;;;;;5.28;3.38;;;;;;;;;;5096589;28;20054;-78
2022/10/01 12:56:43;;;;;;;4.22;2.90;;;;;;;;;;5094931;28;20055;-78
2022/10/01 12:59:32;;;;;;;4.15;2.75;;;;;;;;;;5093979;28;20022;-77
2022/10/01 13:02:11;;;;;;;4.60;2.22;;;;;;;;;;5096464;28;20020;-78
2022/10/01 13:05:00;;;;;;;4.00;2.10;;;;;;;;;;5094638;28;20028;-78
2022/10/01 13:07:55;;;;;;;5.32;2.50;;;;;;;;;;5095219;28;20028;-78
2022/10/01 13:10:39;;;;;;;3.58;2.70;;;;;;;;;;5094339;28;20413;-80
2022/10/01 13:13:13;;;;;;;4.28;2.70;;;;;;;;;;5095620;28;20065;-78
2022/10/01 13:15:48;;;;;;;5.85;2.70;;;;;;;;;;5095571;28;20047;-78
2022/10/01 13:18:35;;;;;;;6.18;3.90;;;;;;;;;;5095569;28;20114;-78
2022/10/01 13:21:07;;;;;;;10.07;4.88;;;;;;;;;;5095452;28;20060;-78
2022/10/01 13:23:38;;;;;;;4.30;3.00;;;;;;;;;;5094941;28;20028;-78
2022/10/01 13:26:26;;;;;;;3.92;2.65;;;;;;;;;;5094431;28;20020;-77
2022/10/01 13:29:06;;;;;;;4.03;2.63;;;;;;;;;;5094898;28;20040;-78
2022/10/01 13:31:56;;;;;;;3.13;2.20;;;;;;;;;;5095925;28;20024;-78
2022/10/01 13:34:26;;;;;;;3.75;2.40;;;;;;;;;;5096919;28;20031;-79
2022/10/01 13:36:52;;;;;;;4.43;2.70;;;;;;;;;;5096407;28;20020;-78
2022/10/01 13:39:22;;;;;;;4.20;2.50;;;;;;;;;;5093928;28;20031;-78
2022/10/01 13:41:49;;;;;;;4.35;2.63;;;;;;;;;;5094341;28;20024;-77
2022/10/01 13:44:28;;;;;;;5.18;2.70;;;;;;;;;;5094306;28;20020;-77
2022/10/01 13:47:04;;;;;;;4.25;2.83;;;;;;;;;;5094195;28;20052;-78
2022/10/01 13:49:31;;;;;;;5.53;3.13;;;;;;;;;;5095133;28;20392;-78
2022/10/01 13:51:57;;;;;;;5.57;3.00;;;;;;;;;;5094402;28;20039;-78
2022/10/01 13:54:38;;;;;;;4.45;2.85;;;;;;;;;;5093621;28;20366;-78
2022/10/01 13:57:26;;;;;;;3.65;2.60;;;;;;;;;;5095612;28;20443;-78
2022/10/01 14:00:15;;;;;;;4.60;2.50;;;;;;;;;;5093982;28;20024;-78
2022/10/01 14:02:43;;;;;;;4.55;2.83;;;;;;;;;;5094806;28;20020;-78
2022/10/01 14:05:12;;;;;;;6.30;3.88;;;;;;;;;;5093202;28;20392;-78
2022/10/01 14:07:38;;;;;;;5.40;3.25;;;;;;;;;;5093373;28;20043;-78
2022/10/01 14:10:04;;;;;;;5.22;3.53;;;;;;;;;;5094905;28;20096;-78
2022/10/01 14:18:17;;;;;;;3.88;2.45;;;;;;;;;;5095941;28;20031;-78
2022/10/01 14:21:07;;;;;;;3.67;2.47;;;;;;;;;;5095652;28;20111;-78
2022/10/01 14:23:45;;;;;;;4.35;2.70;;;;;;;;;;5095296;28;20103;-78
2022/10/01 14:26:27;;;;;;;4.05;2.55;;;;;;;;;;5095146;28;20426;-78
2022/10/01 14:29:01;;;;;;;2.83;2.13;;;;;;;;;;5095733;28;20499;-78
2022/10/01 14:31:52;;;;;;;4.13;2.22;;;;;;;;;;5095102;28;20031;-78
2022/10/01 14:34:35;;;;;;;4.32;2.47;;;;;;;;;;5096722;28;20354;-78
2022/10/01 14:37:05;;;;;;;4.00;2.25;;;;;;;;;;5095981;28;20122;-78
2022/10/01 14:39:32;;;;;;;5.32;2.38;;;;;;;;;;5094103;28;20043;-78
2022/10/01 14:41:57;;;;;;;3.33;2.28;;;;;;;;;;5094983;28;20020;-79
2022/10/01 14:44:28;;;;;;;2.85;2.03;;;;;;;;;;5095426;28;20020;-78
2022/10/01 14:46:56;;;;;;;6.63;2.50;;;;;;;;;;5095675;28;20099;-78
2022/10/01 14:49:29;;;;;;;3.50;2.40;;;;;;;;;;5095031;28;20427;-75
2022/10/01 14:52:12;;;;;;;3.05;2.28;;;;;;;;;;5096697;28;20035;-76
2022/10/01 14:54:44;;;;;;;3.38;2.55;;;;;;;;;;5095512;28;20020;-77
2022/10/01 14:57:17;;;;;;;4.85;3.00;;;;;;;;;;5095506;28;20381;-77
2022/10/01 14:59:46;;;;;;;4.03;2.53;;;;;;;;;;5096730;28;20024;-78
2022/10/01 15:02:20;;;;;;;6.05;2.90;;;;;;;;;;5098510;28;20039;-78
2022/10/01 15:04:47;;;;;;;4.43;2.65;;;;;;;;;;5098836;28;20055;-78
2022/10/01 15:07:14;;;;;;;4.35;2.42;;;;;;;;;;5099023;28;20021;-77
2022/10/01 15:09:40;;;;;;;3.28;2.30;;;;;;;;;;5096696;28;20024;-78
2022/10/01 15:12:05;;;;;;;3.63;2.50;;;;;;;;;;5097918;28;20047;-76
2022/10/01 15:14:31;;;;;;;4.15;2.45;;;;;;;;;;5100260;28;20028;-78
2022/10/01 15:17:02;;;;;;;5.18;2.50;;;;;;;;;;5101143;28;20023;-78